Time;durP1;ratioP1;P1;durP2;ratioP2;P2;SDS_P1;SDS_P2;PMS_P1;PMS_P2;Temp;Humidity;BMP_temperature;BMP_pressure;BME280_temperature;BME280_humidity;BME280_pressure;Samples;Min_cycle;Max_cycle;Signal;HPM_P1;HPM_P2
2023/08/26 00:00:30;;;;;;;9.02;6.07;;;;;;;19.10;89.34;98082.34;5031089;28;20041;-79
2023/08/26 00:02:56;;;;;;;9.15;6.32;;;;;;;19.26;88.23;98084.19;5014013;28;20057;-79
2023/08/26 00:05:21;;;;;;;7.82;5.95;;;;;;;19.06;89.22;98067.88;5015572;28;20111;-78
2023/08/26 00:07:47;;;;;;;11.10;5.57;;;;;;;19.28;88.35;98094.72;5014817;28;20033;-79
2023/08/26 00:10:12;;;;;;;9.98;5.78;;;;;;;19.33;87.83;98116.97;5014767;28;20053;-79
2023/08/26 00:12:38;;;;;;;11.95;6.47;;;;;;;19.35;87.85;98109.34;5015753;28;20920;-78
2023/08/26 00:15:04;;;;;;;8.02;6.20;;;;;;;19.32;88.20;98115.38;5016355;28;20034;-79
2023/08/26 00:17:29;;;;;;;15.93;5.97;;;;;;;19.24;88.07;98113.47;5018069;28;20022;-79
2023/08/26 00:19:54;;;;;;;9.05;6.22;;;;;;;19.25;88.27;98119.69;5016717;28;20040;-80
2023/08/26 00:22:20;;;;;;;10.32;6.65;;;;;;;19.14;88.80;98123.84;5015374;28;20055;-78
2023/08/26 00:24:47;;;;;;;8.73;5.53;;;;;;;19.17;89.26;98129.44;5017193;28;20080;-78
2023/08/26 00:27:13;;;;;;;14.93;7.60;;;;;;;18.70;90.70;98097.97;4996715;28;20041;-77
2023/08/26 00:29:40;;;;;;;12.05;7.18;;;;;;;18.80;91.82;98097.66;5014705;28;20029;-78
2023/08/26 00:32:05;;;;;;;9.93;6.65;;;;;;;19.11;90.78;98105.59;5028075;28;20025;-79
2023/08/26 00:34:31;;;;;;;13.13;6.47;;;;;;;18.98;90.56;98110.03;5018065;28;20018;-76
2023/08/26 00:36:56;;;;;;;11.82;6.60;;;;;;;19.17;90.11;98109.69;5014485;28;20141;-77
2023/08/26 00:39:21;;;;;;;9.50;7.50;;;;;;;18.64;91.52;98100.06;5030884;28;20054;-78
2023/08/26 00:41:47;;;;;;;15.95;7.15;;;;;;;19.02;90.62;98113.72;5010697;28;20046;-76
2023/08/26 00:44:12;;;;;;;13.00;6.30;;;;;;;19.03;90.45;98109.88;5014493;28;20093;-79
2023/08/26 00:46:37;;;;;;;16.65;7.30;;;;;;;19.10;90.31;98099.38;5015719;28;20515;-78
2023/08/26 00:49:03;;;;;;;13.35;7.85;;;;;;;19.11;90.38;98100.94;5015580;28;20049;-79
2023/08/26 00:51:29;;;;;;;10.95;6.65;;;;;;;18.97;91.10;98084.13;5018777;28;20022;-78
2023/08/26 00:53:55;;;;;;;11.75;6.70;;;;;;;19.10;90.54;98079.63;5021106;28;20029;-77
2023/08/26 00:56:22;;;;;;;12.65;6.53;;;;;;;19.13;90.23;98085.19;5019631;28;20048;-78
2023/08/26 00:58:48;;;;;;;8.88;6.60;;;;;;;19.07;90.34;98066.75;5035720;23;20096;-85
2023/08/26 01:01:13;;;;;;;8.95;6.75;;;;;;;19.14;90.18;98075.97;4997616;28;20041;-86
2023/08/26 01:03:39;;;;;;;7.53;5.68;;;;;;;19.06;90.55;98081.41;4980152;28;20022;-85
2023/08/26 01:06:04;;;;;;;12.18;7.15;;;;;;;19.07;90.54;98072.94;5004940;28;20817;-85
2023/08/26 01:08:30;;;;;;;12.50;7.30;;;;;;;19.11;90.47;98075.81;4992630;28;20037;-85
2023/08/26 01:10:55;;;;;;;10.40;6.72;;;;;;;19.08;90.61;98079.16;5008374;28;20417;-85
2023/08/26 01:13:31;;;;;;;17.35;7.95;;;;;;;19.11;90.61;98073.88;5011782;28;20018;-85
2023/08/26 01:15:57;;;;;;;10.77;7.45;;;;;;;18.96;91.39;98052.78;4990173;28;20389;-86
2023/08/26 01:18:23;;;;;;;11.57;6.72;;;;;;;18.91;91.07;98044.84;5008824;28;20934;-85
2023/08/26 01:20:49;;;;;;;16.63;7.20;;;;;;;19.04;90.93;98053.88;4983645;28;20177;-85
2023/08/26 01:23:27;;;;;;;9.95;8.02;;;;;;;18.79;91.73;98044.69;4996551;28;20128;-85
2023/08/26 01:25:53;;;;;;;10.10;7.05;;;;;;;18.98;91.67;98044.34;4991476;28;20608;-84
2023/08/26 01:28:18;;;;;;;10.57;6.78;;;;;;;18.87;91.37;98035.75;4976290;28;20073;-85
2023/08/26 01:30:44;;;;;;;11.93;7.28;;;;;;;18.95;91.11;98037.66;4962487;28;20045;-85
2023/08/26 01:33:20;;;;;;;8.65;7.00;;;;;;;19.03;90.96;98047.66;4996173;28;20034;-85
2023/08/26 01:35:47;;;;;;;7.70;6.85;;;;;;;19.01;90.81;98033.66;5000424;28;20109;-86
2023/08/26 01:38:16;;;;;;;10.60;7.95;;;;;;;18.82;91.12;98041.34;5013591;28;20025;-85
2023/08/26 01:40:47;;;;;;;13.55;7.28;;;;;;;18.88;91.81;98039.25;4993883;28;20034;-85
2023/08/26 01:43:13;;;;;;;13.10;7.18;;;;;;;18.89;90.84;98033.56;4987324;28;20036;-85
2023/08/26 01:45:38;;;;;;;14.18;8.18;;;;;;;19.04;91.11;98064.69;4980170;28;20038;-85
2023/08/26 01:48:04;;;;;;;10.35;6.88;;;;;;;18.73;91.09;98028.97;4994979;28;20739;-85
2023/08/26 01:50:29;;;;;;;10.82;7.45;;;;;;;19.00;90.86;98085.38;4979236;28;20080;-86
2023/08/26 01:52:54;;;;;;;16.00;8.93;;;;;;;19.01;91.20;98106.69;4993602;28;20462;-85
2023/08/26 01:55:20;;;;;;;42.22;8.85;;;;;;;19.01;91.46;98133.75;4992226;28;20596;-84
2023/08/26 01:57:45;;;;;;;22.00;8.70;;;;;;;18.62;92.45;98125.81;4993452;28;20030;-84
2023/08/26 02:00:11;;;;;;;15.27;9.52;;;;;;;18.46;93.71;98122.78;4977350;28;20052;-84
2023/08/26 02:02:37;;;;;;;14.75;9.98;;;;;;;18.55;93.23;98111.97;5011031;28;20037;-83
2023/08/26 02:05:02;;;;;;;15.57;8.27;;;;;;;18.67;92.91;98121.03;4988818;28;20049;-83
2023/08/26 02:07:27;;;;;;;16.17;8.02;;;;;;;18.93;91.89;98121.03;4984362;28;20026;-84
2023/08/26 02:09:53;;;;;;;13.05;8.90;;;;;;;18.87;91.85;98130.41;5010901;28;20033;-84
2023/08/26 02:12:18;;;;;;;15.10;8.98;;;;;;;18.93;92.04;98139.97;4991026;28;20053;-84
2023/08/26 02:14:43;;;;;;;11.27;8.95;;;;;;;18.81;92.37;98115.47;5009790;28;20041;-84
2023/08/26 02:17:09;;;;;;;15.40;9.45;;;;;;;18.89;92.62;98120.09;4970930;28;20088;-84
2023/08/26 02:19:34;;;;;;;12.88;9.50;;;;;;;18.91;92.24;98104.34;4987316;28;20029;-84
2023/08/26 02:22:00;;;;;;;11.60;9.35;;;;;;;18.89;92.15;98098.47;5009016;28;20478;-83
2023/08/26 02:24:26;;;;;;;12.10;8.82;;;;;;;18.87;91.97;98086.38;5002138;28;20537;-84
2023/08/26 02:26:51;;;;;;;13.77;9.88;;;;;;;18.83;92.06;98091.59;4993128;28;20160;-83
2023/08/26 02:29:16;;;;;;;13.55;9.60;;;;;;;18.97;91.91;98115.78;4986601;28;20619;-84
2023/08/26 02:31:42;;;;;;;11.80;9.80;;;;;;;19.03;91.93;98117.19;5008577;28;20084;-84
2023/08/26 02:34:07;;;;;;;13.40;9.68;;;;;;;18.92;92.27;98124.84;4992170;28;20397;-83
2023/08/26 02:36:32;;;;;;;10.13;8.27;;;;;;;18.94;92.69;98121.81;4989730;28;20080;-83
2023/08/26 02:38:58;;;;;;;13.00;9.25;;;;;;;18.94;92.41;98116.41;5006436;28;20490;-84
2023/08/26 02:41:23;;;;;;;12.50;9.43;;;;;;;18.92;93.02;98124.03;5008441;28;20077;-84
2023/08/26 02:43:49;;;;;;;11.02;8.98;;;;;;;18.88;92.43;98107.69;5007147;28;20163;-84
2023/08/26 02:46:14;;;;;;;11.05;9.05;;;;;;;18.87;92.82;98130.41;4959907;28;20124;-85
2023/08/26 02:48:39;;;;;;;14.48;9.70;;;;;;;18.90;92.77;98129.78;4969508;28;20041;-84
2023/08/26 02:51:05;;;;;;;10.73;9.35;;;;;;;18.99;92.65;98129.78;4986805;28;20109;-85
2023/08/26 02:53:30;;;;;;;11.57;9.57;;;;;;;18.90;92.62;98121.66;4989139;28;20045;-85
2023/08/26 02:55:56;;;;;;;11.57;9.38;;;;;;;18.79;92.75;98112.28;5006842;28;20125;-85
2023/08/26 02:58:23;;;;;;;9.20;8.15;;;;;;;18.85;92.80;98121.06;4978715;28;20477;-85
2023/08/26 03:00:48;;;;;;;10.48;8.57;;;;;;;18.86;92.46;98107.19;4977713;28;20117;-85
2023/08/26 03:03:14;;;;;;;9.95;8.93;;;;;;;19.00;92.40;98118.63;4989784;28;20463;-85
2023/08/26 03:05:40;;;;;;;9.98;8.90;;;;;;;18.80;92.42;98088.75;5009673;28;20029;-84
2023/08/26 03:08:06;;;;;;;11.27;9.52;;;;;;;18.87;92.63;98116.13;5007615;28;20048;-84
2023/08/26 03:10:31;;;;;;;11.43;8.45;;;;;;;18.91;92.88;98117.88;4988121;28;20053;-85
2023/08/26 03:12:57;;;;;;;12.60;9.70;;;;;;;18.81;92.64;98109.25;5008596;28;20030;-85
2023/08/26 03:15:26;;;;;;;14.05;8.55;;;;;;;18.93;92.69;98121.03;4993122;28;20026;-85
2023/08/26 03:17:51;;;;;;;15.45;10.40;;;;;;;18.88;92.58;98121.19;5008349;28;20117;-85
2023/08/26 03:20:16;;;;;;;11.18;10.07;;;;;;;18.83;92.68;98110.53;4991891;28;20126;-84
2023/08/26 03:22:42;;;;;;;15.10;9.73;;;;;;;18.79;92.63;98112.28;4977380;28;20061;-85
2023/08/26 03:25:07;;;;;;;18.40;11.10;;;;;;;18.89;92.42;98122.00;4958718;28;20132;-85
2023/08/26 03:27:33;;;;;;;13.77;10.90;;;;;;;18.78;92.43;98129.66;5004322;28;20052;-84
2023/08/26 03:29:58;;;;;;;15.40;10.82;;;;;;;18.86;92.50;98134.25;5009671;28;20397;-85
2023/08/26 03:32:24;;;;;;;14.02;10.98;;;;;;;18.89;92.46;98135.53;4992819;28;20500;-85
2023/08/26 03:34:50;;;;;;;16.20;11.13;;;;;;;18.93;92.01;98133.75;4989640;28;20052;-85
2023/08/26 03:37:15;;;;;;;15.77;11.45;;;;;;;18.93;91.73;98122.94;5008075;28;20038;-84
2023/08/26 03:39:41;;;;;;;12.95;11.55;;;;;;;18.86;91.96;98128.03;4987744;28;20163;-85
2023/08/26 03:42:06;;;;;;;16.85;12.38;;;;;;;18.80;92.20;98135.53;4976537;28;20406;-85
2023/08/26 03:44:31;;;;;;;16.27;12.20;;;;;;;18.65;91.79;98125.19;4959992;28;20033;-85
2023/08/26 03:46:57;;;;;;;17.23;12.27;;;;;;;18.85;92.15;98153.50;5011376;28;20021;-85
2023/08/26 03:49:22;;;;;;;12.95;11.43;;;;;;;18.83;91.50;98144.91;4970954;28;20112;-85
2023/08/26 03:51:48;;;;;;;16.27;12.35;;;;;;;18.92;92.03;98159.19;4990920;28;20124;-85
2023/08/26 03:54:13;;;;;;;16.30;12.48;;;;;;;18.74;91.79;98139.47;5010010;28;20037;-84
2023/08/26 03:56:39;;;;;;;16.80;13.23;;;;;;;18.72;92.24;98151.75;4974892;28;20045;-85
2023/08/26 03:59:04;;;;;;;17.20;13.13;;;;;;;18.68;92.87;98149.66;4974795;28;20389;-85
2023/08/26 04:01:31;;;;;;;15.60;12.25;;;;;;;18.76;92.29;98156.22;4986276;28;20030;-85
2023/08/26 04:03:56;;;;;;;18.85;14.73;;;;;;;18.53;92.41;98146.63;4961374;28;20540;-85
2023/08/26 04:06:22;;;;;;;18.88;14.60;;;;;;;18.78;91.84;98158.59;4975675;28;20027;-84
2023/08/26 04:08:48;;;;;;;21.48;14.57;;;;;;;18.61;92.41;98168.25;4976333;28;20072;-84
2023/08/26 04:11:15;;;;;;;15.90;12.75;;;;;;;18.55;92.65;98157.94;5003698;28;20053;-85
2023/08/26 04:13:40;;;;;;;23.20;15.55;;;;;;;18.61;91.98;98156.66;4973277;28;20072;-85
2023/08/26 04:16:06;;;;;;;20.80;15.13;;;;;;;18.62;91.72;98163.66;4989192;28;20046;-85
2023/08/26 04:18:32;;;;;;;20.27;15.02;;;;;;;18.66;91.60;98164.63;4990604;28;20064;-85
2023/08/26 04:20:57;;;;;;;20.77;14.80;;;;;;;18.63;91.39;98163.34;4991677;28;20143;-85
2023/08/26 04:23:23;;;;;;;20.60;14.98;;;;;;;18.75;91.10;98164.63;5011122;28;20393;-84
2023/08/26 04:25:51;;;;;;;20.80;15.52;;;;;;;18.72;91.28;98179.56;5012691;28;20034;-84
2023/08/26 04:28:16;;;;;;;18.95;14.73;;;;;;;18.70;91.25;98166.38;4991935;28;20453;-84
2023/08/26 04:30:41;;;;;;;18.98;14.90;;;;;;;18.61;91.60;98170.97;4966120;28;20133;-84
2023/08/26 04:33:07;;;;;;;23.40;16.17;;;;;;;18.60;91.64;98177.50;5003653;28;20177;-84
2023/08/26 04:35:33;;;;;;;26.73;15.52;;;;;;;18.40;92.46;98172.66;4992197;28;20091;-84
2023/08/26 04:38:00;;;;;;;21.80;16.08;;;;;;;18.57;92.01;98177.31;5005390;28;20030;-84
2023/08/26 04:40:25;;;;;;;19.00;15.38;;;;;;;18.52;91.39;98161.28;5010505;28;20029;-84
2023/08/26 04:42:53;;;;;;;19.80;16.00;;;;;;;18.65;91.28;98180.03;4992359;28;20079;-85
2023/08/26 04:45:19;;;;;;;19.98;15.55;;;;;;;18.59;90.72;98177.81;5008778;28;20379;-85
2023/08/26 04:47:44;;;;;;;24.33;17.25;;;;;;;18.42;91.23;98156.94;4995175;28;20144;-85
2023/08/26 04:50:11;;;;;;;18.85;15.18;;;;;;;18.55;90.92;98168.75;4979826;28;20033;-85
2023/08/26 04:52:38;;;;;;;18.17;14.40;;;;;;;18.65;90.86;98179.25;4988489;28;20448;-85
2023/08/26 04:55:04;;;;;;;25.20;15.75;;;;;;;18.60;90.83;98179.41;4987410;28;20149;-85
2023/08/26 04:57:29;;;;;;;23.35;16.00;;;;;;;18.57;90.97;98178.13;4983397;28;20144;-85
2023/08/26 04:59:55;;;;;;;21.25;15.73;;;;;;;18.59;90.91;98194.81;4995209;28;20033;-85
2023/08/26 05:02:20;;;;;;;22.27;15.10;;;;;;;18.55;90.50;98185.75;5013205;28;20030;-85
2023/08/26 05:04:45;;;;;;;21.52;15.43;;;;;;;18.52;90.99;98199.13;5012751;28;20044;-84
2023/08/26 05:07:11;;;;;;;20.63;15.63;;;;;;;18.39;91.26;98191.91;4979284;28;20057;-84
2023/08/26 05:09:37;;;;;;;22.63;17.55;;;;;;;18.15;92.02;98178.03;5007391;28;20030;-85
2023/08/26 05:12:03;;;;;;;24.73;16.63;;;;;;;18.47;90.68;98185.75;5013268;28;20061;-85
2023/08/26 05:14:28;;;;;;;21.33;17.25;;;;;;;18.46;90.88;98184.94;4973415;28;20431;-84
2023/08/26 05:16:53;;;;;;;25.13;17.05;;;;;;;18.52;91.27;98201.81;4978033;28;20034;-84
2023/08/26 05:19:19;;;;;;;20.52;16.88;;;;;;;18.34;91.82;98203.66;4991726;28;20030;-85
2023/08/26 05:21:44;;;;;;;25.85;19.20;;;;;;;18.14;92.43;98179.13;4977419;28;20038;-85
2023/08/26 05:24:09;;;;;;;23.65;19.17;;;;;;;18.07;93.18;98178.78;4975757;28;20033;-86
2023/08/26 05:26:36;;;;;;;21.52;17.13;;;;;;;18.19;93.15;98181.69;4998034;28;20116;-85
2023/08/26 05:29:01;;;;;;;22.00;16.48;;;;;;;18.38;91.95;98182.19;4977499;28;20048;-85
2023/08/26 05:31:26;;;;;;;20.00;15.77;;;;;;;18.48;91.34;98188.13;4974275;28;20030;-86
2023/08/26 05:33:52;;;;;;;21.38;15.88;;;;;;;18.55;91.48;98209.28;4975175;28;20033;-85
2023/08/26 05:36:18;;;;;;;21.83;16.40;;;;;;;18.50;91.58;98202.13;4991132;28;20026;-85
2023/08/26 05:38:43;;;;;;;24.83;16.17;;;;;;;18.54;91.92;98208.47;4977153;28;20614;-85
2023/08/26 05:41:09;;;;;;;19.88;17.33;;;;;;;18.56;92.48;98219.78;5009950;28;20021;-85
2023/08/26 05:43:34;;;;;;;19.58;16.35;;;;;;;18.33;92.64;98193.94;5010578;28;20041;-85
2023/08/26 05:46:00;;;;;;;18.98;15.02;;;;;;;18.34;93.65;98211.75;4988083;28;20433;-85
2023/08/26 05:48:25;;;;;;;24.50;18.80;;;;;;;18.45;93.17;98217.69;5012121;28;20026;-85
2023/08/26 05:50:50;;;;;;;20.83;17.23;;;;;;;18.27;94.31;98202.50;4992978;28;20030;-85
2023/08/26 05:53:16;;;;;;;23.38;15.35;;;;;;;18.65;92.66;98219.81;4990476;28;20037;-85
2023/08/26 05:55:41;;;;;;;17.33;14.15;;;;;;;18.52;92.97;98208.00;4972694;28;20077;-85
2023/08/26 05:58:07;;;;;;;18.90;14.80;;;;;;;18.63;93.15;98220.09;4996729;28;20037;-86
2023/08/26 06:00:32;;;;;;;19.05;15.77;;;;;;;18.66;93.14;98224.09;4973016;28;20030;-86
2023/08/26 06:02:58;;;;;;;16.60;14.85;;;;;;;18.74;93.21;98228.69;4978305;28;20030;-85
2023/08/26 06:05:23;;;;;;;19.55;13.93;;;;;;;18.69;92.81;98223.47;4974696;28;20033;-86
2023/08/26 06:07:50;;;;;;;19.23;13.65;;;;;;;18.60;93.48;98214.53;4978043;28;20113;-86
2023/08/26 06:10:16;;;;;;;20.10;14.68;;;;;;;18.65;92.73;98225.22;4976159;28;20022;-85
2023/08/26 06:12:41;;;;;;;20.45;15.07;;;;;;;18.50;94.66;98241.88;4993129;28;20157;-85
2023/08/26 06:15:07;;;;;;;21.05;15.60;;;;;;;18.54;94.10;98245.53;4995049;28;20030;-85
2023/08/26 06:17:34;;;;;;;17.85;14.55;;;;;;;18.54;93.15;98235.50;5003672;28;20026;-86
2023/08/26 06:20:00;;;;;;;18.38;13.73;;;;;;;18.58;92.55;98244.59;5008931;28;20065;-85
2023/08/26 06:22:25;;;;;;;23.88;15.52;;;;;;;18.60;92.60;98258.59;4986014;28;20479;-85
2023/08/26 06:24:51;;;;;;;21.08;16.60;;;;;;;18.42;92.89;98237.19;4973846;28;20033;-85
2023/08/26 06:27:16;;;;;;;23.40;16.05;;;;;;;18.58;92.60;98268.13;4986374;28;20107;-86
2023/08/26 06:29:54;;;;;;;24.35;17.98;;;;;;;18.41;93.26;98259.94;4983976;28;20383;-85
2023/08/26 06:32:23;;;;;;;22.48;17.02;;;;;;;18.38;92.92;98247.84;5008370;28;20498;-85
2023/08/26 06:34:48;;;;;;;26.52;18.48;;;;;;;18.45;91.78;98248.22;4963730;28;20038;-85
2023/08/26 06:37:14;;;;;;;25.63;18.23;;;;;;;18.45;91.88;98263.63;4967981;28;20034;-85
2023/08/26 06:39:39;;;;;;;21.63;17.73;;;;;;;18.60;91.19;98268.59;4986735;28;20034;-84
2023/08/26 06:42:05;;;;;;;24.23;18.25;;;;;;;18.46;91.68;98276.84;4994731;28;20029;-85
2023/08/26 06:44:30;;;;;;;24.33;19.55;;;;;;;18.46;90.84;98267.91;4989448;28;20038;-84
2023/08/26 06:46:56;;;;;;;25.35;17.63;;;;;;;18.37;90.46;98269.78;4974485;28;20029;-85
2023/08/26 06:49:21;;;;;;;28.17;16.90;;;;;;;18.40;90.20;98271.84;4984947;28;20037;-84
2023/08/26 06:51:47;;;;;;;25.95;19.25;;;;;;;18.38;91.24;98291.09;4975519;28;20030;-85
2023/08/26 06:54:12;;;;;;;23.30;16.27;;;;;;;18.44;90.58;98294.44;4974062;28;20068;-85
2023/08/26 06:56:38;;;;;;;22.23;17.50;;;;;;;18.48;90.71;98287.31;5007684;28;20037;-85
2023/08/26 06:59:04;;;;;;;24.60;15.35;;;;;;;18.47;89.91;98278.44;4977089;28;20034;-84
2023/08/26 07:01:31;;;;;;;21.02;15.80;;;;;;;18.63;88.74;98298.50;4961837;28;20025;-84
2023/08/26 07:04:06;;;;;;;15.63;13.60;;;;;;;18.47;89.11;98304.66;4996918;28;20025;-85
2023/08/26 07:06:35;;;;;;;16.33;14.55;;;;;;;18.27;89.13;98288.97;5010941;28;20517;-85
2023/08/26 07:09:01;;;;;;;19.08;12.48;;;;;;;18.26;87.10;98282.75;4958865;28;20033;-84
2023/08/26 07:11:26;;;;;;;17.88;13.50;;;;;;;18.37;87.15;98313.03;4992799;28;20064;-85
2023/08/26 07:13:52;;;;;;;21.95;13.90;;;;;;;18.36;86.12;98314.94;4956808;28;20509;-85
2023/08/26 07:16:17;;;;;;;14.32;12.57;;;;;;;18.37;85.69;98323.84;4969221;28;20038;-84
2023/08/26 07:18:43;;;;;;;18.48;12.30;;;;;;;18.27;85.79;98329.50;4982162;28;20109;-85
2023/08/26 07:21:08;;;;;;;14.55;11.27;;;;;;;18.08;86.04;98324.31;4987648;28;20072;-85
2023/08/26 07:23:34;;;;;;;14.38;12.90;;;;;;;18.19;85.29;98330.25;4980567;28;20037;-86
2023/08/26 07:26:00;;;;;;;13.43;12.13;;;;;;;18.09;87.11;98323.19;4988695;28;20100;-85
2023/08/26 07:28:26;;;;;;;12.18;10.63;;;;;;;18.42;85.30;98340.69;4984950;28;20057;-85
2023/08/26 07:30:51;;;;;;;16.75;10.65;;;;;;;18.37;84.54;98330.00;5002325;28;20037;-85
2023/08/26 07:33:17;;;;;;;11.35;9.57;;;;;;;18.33;84.91;98336.34;4986892;28;20184;-85
2023/08/26 07:35:42;;;;;;;8.50;6.93;;;;;;;18.30;81.75;98331.59;4985069;28;20030;-84
2023/08/26 07:38:08;;;;;;;7.40;6.78;;;;;;;18.46;81.10;98351.69;4987466;28;20026;-84
2023/08/26 07:40:34;;;;;;;8.35;6.20;;;;;;;18.34;80.60;98348.75;4981671;28;20481;-85
2023/08/26 07:43:00;;;;;;;8.85;6.78;;;;;;;18.28;80.84;98352.72;4966382;28;20026;-85
2023/08/26 07:45:25;;;;;;;7.22;6.07;;;;;;;18.34;80.07;98348.75;4988054;28;20030;-84
2023/08/26 07:47:51;;;;;;;7.70;5.53;;;;;;;18.19;79.24;98357.28;4960984;28;20053;-84
2023/08/26 07:50:17;;;;;;;8.90;6.53;;;;;;;18.03;80.53;98362.25;4984923;28;20034;-85
2023/08/26 07:52:42;;;;;;;14.52;6.65;;;;;;;18.05;80.17;98364.63;4984970;28;20030;-85
2023/08/26 07:55:08;;;;;;;10.00;6.32;;;;;;;18.13;79.27;98366.63;5003084;28;20040;-85
2023/08/26 07:57:33;;;;;;;6.65;6.00;;;;;;;18.06;79.49;98366.25;4986920;28;20032;-85
2023/08/26 07:59:59;;;;;;;6.03;5.43;;;;;;;18.03;79.32;98358.75;4993310;28;20037;-84
2023/08/26 08:02:24;;;;;;;9.63;6.70;;;;;;;18.23;79.40;98369.03;4969209;28;20036;-85
2023/08/26 08:04:50;;;;;;;6.82;6.15;;;;;;;17.96;80.94;98359.19;4982835;28;20064;-84
2023/08/26 08:07:15;;;;;;;9.52;6.60;;;;;;;18.18;80.30;98356.47;5001828;28;20030;-85
2023/08/26 08:09:41;;;;;;;11.73;6.40;;;;;;;18.16;79.94;98358.69;4987422;28;20045;-85
2023/08/26 08:12:09;;;;;;;6.88;6.18;;;;;;;18.23;79.25;98359.03;4988200;28;20066;-84
2023/08/26 08:14:34;;;;;;;9.90;5.88;;;;;;;18.14;78.93;98358.19;4990061;28;20053;-85
2023/08/26 08:17:00;;;;;;;8.18;5.28;;;;;;;18.20;77.40;98359.66;4997773;28;20057;-84
2023/08/26 08:19:25;;;;;;;4.70;4.20;;;;;;;18.03;75.05;98350.66;4968802;28;20022;-85
2023/08/26 08:21:51;;;;;;;6.35;4.00;;;;;;;17.95;73.05;98354.91;4977468;28;20034;-84
2023/08/26 08:24:17;;;;;;;5.20;3.53;;;;;;;17.88;73.75;98359.94;4974040;28;20041;-84
2023/08/26 08:26:43;;;;;;;5.80;3.60;;;;;;;17.87;72.86;98351.03;4981129;28;20026;-83
2023/08/26 08:29:10;;;;;;;3.78;2.95;;;;;;;18.07;72.24;98370.53;4992293;28;20130;-84
2023/08/26 08:31:36;;;;;;;6.35;3.00;;;;;;;17.99;74.30;98372.09;4992488;28;20105;-82
2023/08/26 08:34:03;;;;;;;2.72;2.53;;;;;;;17.97;74.81;98356.16;4980794;28;20475;-82
2023/08/26 08:36:29;;;;;;;7.80;3.08;;;;;;;17.95;75.04;98361.09;5006128;28;20036;-83
2023/08/26 08:38:54;;;;;;;3.53;2.53;;;;;;;18.21;74.41;98363.16;4988387;28;20425;-82
2023/08/26 08:41:20;;;;;;;5.20;2.85;;;;;;;18.21;74.17;98357.75;5013578;28;20037;-83
2023/08/26 08:43:48;;;;;;;4.55;2.75;;;;;;;18.22;73.90;98356.63;4994630;28;20030;-82
2023/08/26 08:46:16;;;;;;;5.47;2.72;;;;;;;18.04;71.79;98361.16;5001743;28;20870;-82
2023/08/26 08:48:41;;;;;;;3.22;2.78;;;;;;;18.33;74.24;98374.97;4989017;28;20058;-82
2023/08/26 08:51:08;;;;;;;3.40;2.67;;;;;;;18.39;73.82;98370.25;5014570;28;20072;-83
2023/08/26 08:53:40;;;;;;;3.83;2.97;;;;;;;18.34;74.58;98365.78;4993733;28;20022;-82
2023/08/26 08:56:06;;;;;;;7.78;2.80;;;;;;;18.45;73.19;98382.56;5008811;28;20080;-83
2023/08/26 08:58:32;;;;;;;5.00;3.08;;;;;;;18.38;74.42;98379.47;4981130;28;20072;-84
2023/08/26 09:00:59;;;;;;;5.10;2.85;;;;;;;18.47;74.01;98381.13;4992843;28;20061;-82
2023/08/26 09:03:24;;;;;;;5.53;2.80;;;;;;;18.49;73.73;98367.31;4976381;28;20072;-83
2023/08/26 09:05:53;;;;;;;6.43;2.95;;;;;;;18.51;72.85;98363.19;4990854;28;20627;-83
2023/08/26 09:08:20;;;;;;;7.20;3.38;;;;;;;18.53;73.55;98379.09;4978978;28;20524;-82
2023/08/26 09:10:46;;;;;;;5.53;2.80;;;;;;;18.63;72.07;98378.81;5010149;28;20098;-82
2023/08/26 09:13:12;;;;;;;2.72;2.42;;;;;;;18.62;71.82;98388.84;5010461;28;20041;-82
2023/08/26 09:15:38;;;;;;;4.32;2.80;;;;;;;18.69;72.67;98391.09;4994478;28;20390;-82
2023/08/26 09:18:08;;;;;;;2.95;2.20;;;;;;;18.74;72.08;98396.34;5011623;28;20344;-82
2023/08/26 09:20:39;;;;;;;6.45;2.67;;;;;;;18.78;71.68;98397.34;5009891;28;20152;-83
2023/08/26 09:23:05;;;;;;;5.85;2.35;;;;;;;18.69;72.03;98391.09;5011089;28;20141;-83
2023/08/26 09:25:52;;;;;;;18.08;3.03;;;;;;;18.83;71.28;98377.47;4989903;28;20133;-82
2023/08/26 09:28:17;;;;;;;3.15;2.35;;;;;;;18.96;71.04;98398.97;5007169;28;20473;-83
2023/08/26 09:31:01;;;;;;;2.75;2.20;;;;;;;18.83;72.03;98389.06;4994541;28;20045;-82
2023/08/26 09:33:26;;;;;;;3.40;2.15;;;;;;;18.90;70.61;98385.91;4995910;28;20365;-82
2023/08/26 09:35:51;;;;;;;2.42;1.92;;;;;;;18.87;70.62;98381.13;5008501;28;20037;-82
2023/08/26 09:38:17;;;;;;;2.13;1.55;;;;;;;18.95;70.33;98389.28;4974234;28;20058;-83
2023/08/26 09:40:48;;;;;;;2.90;2.35;;;;;;;18.75;70.20;98360.09;5009948;28;20037;-83
2023/08/26 09:43:14;;;;;;;4.15;2.00;;;;;;;18.92;68.22;98384.47;5004115;28;20508;-83
2023/08/26 09:45:40;;;;;;;2.30;1.77;;;;;;;18.95;69.76;98381.16;4988487;28;20025;-83
2023/08/26 09:48:05;;;;;;;5.72;1.80;;;;;;;18.95;68.31;98364.13;4979950;28;20041;-82
2023/08/26 09:50:31;;;;;;;5.05;2.03;;;;;;;19.14;69.38;98389.81;4991565;28;20109;-83
2023/08/26 09:52:57;;;;;;;3.33;2.63;;;;;;;19.09;68.69;98376.41;4995766;28;20026;-82
2023/08/26 09:55:23;;;;;;;2.67;1.75;;;;;;;19.14;68.88;98378.97;4988940;28;20056;-82
2023/08/26 09:57:48;;;;;;;4.10;1.88;;;;;;;19.16;68.51;98368.63;5009111;28;20084;-83
2023/08/26 10:00:16;;;;;;;5.63;1.88;;;;;;;19.27;67.97;98378.03;4996665;28;20121;-82
2023/08/26 10:02:49;;;;;;;3.08;2.20;;;;;;;19.23;67.86;98377.09;5010795;28;20075;-82
2023/08/26 10:05:20;;;;;;;2.20;1.90;;;;;;;19.37;67.78;98382.41;5008865;28;20030;-82
2023/08/26 10:07:48;;;;;;;4.03;1.92;;;;;;;19.32;66.55;98367.06;5000983;28;20037;-82
2023/08/26 10:10:24;;;;;;;2.05;1.50;;;;;;;19.53;66.71;98385.44;4987990;28;20032;-82
2023/08/26 10:13:03;;;;;;;1.65;1.55;;;;;;;19.59;65.08;98384.97;4988119;28;20049;-82
2023/08/26 10:15:32;;;;;;;3.50;2.15;;;;;;;19.64;65.79;98371.25;4990793;28;20037;-82
2023/08/26 10:18:11;;;;;;;5.43;2.17;;;;;;;19.69;65.81;98378.44;5004348;28;20112;-83
2023/08/26 10:20:38;;;;;;;4.95;2.67;;;;;;;19.70;64.47;98366.50;4987450;28;20058;-82
2023/08/26 10:23:06;;;;;;;1.92;1.73;;;;;;;19.93;63.17;98374.13;4993082;28;20045;-82
2023/08/26 10:25:32;;;;;;;3.30;2.22;;;;;;;20.00;63.75;98366.31;4988407;28;20437;-82
2023/08/26 10:27:59;;;;;;;3.35;1.88;;;;;;;20.12;64.12;98369.13;4988154;28;20510;-82
2023/08/26 10:30:25;;;;;;;3.05;2.17;;;;;;;20.27;63.51;98372.50;4976113;28;20048;-82
2023/08/26 10:33:00;;;;;;;2.83;1.90;;;;;;;20.29;63.54;98349.34;4961144;28;20030;-83
2023/08/26 10:35:27;;;;;;;2.92;1.80;;;;;;;20.44;63.92;98384.09;5002128;28;20041;-83
2023/08/26 10:38:07;;;;;;;4.45;2.15;;;;;;;20.47;63.52;98382.63;4983506;28;20030;-83
2023/08/26 10:40:33;;;;;;;3.78;1.77;;;;;;;20.55;63.18;98379.88;4989057;28;20639;-84
2023/08/26 10:43:11;;;;;;;2.88;1.80;;;;;;;20.49;62.80;98370.34;4958207;28;20042;-83
2023/08/26 10:46:03;;;;;;;3.78;2.40;;;;;;;20.62;62.02;98377.47;4991706;28;20087;-83
2023/08/26 10:48:29;;;;;;;2.78;2.13;;;;;;;20.72;61.53;98382.56;4987265;28;20045;-82
2023/08/26 10:51:01;;;;;;;4.47;2.42;;;;;;;20.79;61.46;98377.41;4992440;28;20038;-83
2023/08/26 10:53:26;;;;;;;6.97;2.03;;;;;;;20.86;60.81;98388.53;4993049;28;21950;-82
2023/08/26 10:55:53;;;;;;;2.13;1.60;;;;;;;21.07;60.84;98385.13;4972830;28;20033;-83
2023/08/26 10:58:19;;;;;;;5.13;1.85;;;;;;;21.05;59.07;98371.09;5000880;28;20057;-83
2023/08/26 11:00:51;;;;;;;2.42;1.80;;;;;;;21.18;60.01;98403.44;4988640;28;20049;-83
2023/08/26 11:03:23;;;;;;;3.97;1.63;;;;;;;21.31;59.76;98398.88;4979183;28;20032;-83
2023/08/26 11:06:02;;;;;;;5.72;1.60;;;;;;;21.46;58.65;98393.66;4992761;28;20069;-82
2023/08/26 11:08:28;;;;;;;3.05;1.60;;;;;;;21.54;58.21;98389.28;4992842;28;20524;-82
2023/08/26 11:10:53;;;;;;;3.65;2.10;;;;;;;21.61;58.52;98384.91;4959815;28;20120;-84
2023/08/26 11:13:21;;;;;;;3.35;1.60;;;;;;;21.70;58.58;98381.34;4989882;28;20032;-83
2023/08/26 11:15:49;;;;;;;4.72;1.92;;;;;;;21.84;57.50;98384.63;4992407;28;20524;-84
2023/08/26 11:18:16;;;;;;;5.78;2.03;;;;;;;21.89;57.27;98390.63;4992053;28;20030;-84
2023/08/26 11:20:43;;;;;;;2.95;1.70;;;;;;;22.03;56.51;98383.00;4997084;28;20054;-83